Time;durP1;ratioP1;P1;durP2;ratioP2;P2;SDS_P1;SDS_P2;PMS_P1;PMS_P2;Temp;Humidity;BMP_temperature;BMP_pressure;BME280_temperature;BME280_humidity;BME280_pressure;Samples;Min_cycle;Max_cycle;Signal;HPM_P1;HPM_P2
2022/01/14 00:00:06;;;;;;;48.60;22.58;;;;;;;0.79;88.19;103424.47;5093997;28;20101;-70
2022/01/14 00:02:44;;;;;;;44.85;22.08;;;;;;;0.82;88.39;103416.59;5070320;27;20382;-71
2022/01/14 00:05:10;;;;;;;44.50;21.73;;;;;;;0.84;88.57;103420.03;5065030;28;20467;-71
2022/01/14 00:07:37;;;;;;;55.72;22.17;;;;;;;0.79;88.03;103419.25;5066530;28;20118;-71
2022/01/14 00:10:04;;;;;;;51.40;21.40;;;;;;;0.74;88.08;103410.59;5068315;28;20051;-71
2022/01/14 00:12:37;;;;;;;52.15;21.17;;;;;;;0.84;88.11;103408.72;5062754;28;20045;-71
2022/01/14 00:15:34;;;;;;;51.40;20.67;;;;;;;0.84;88.04;103403.50;5069357;28;20055;-71
2022/01/14 00:17:52;;;;;;;53.67;20.75;;;;;;;0.82;87.97;103407.88;5063288;28;20132;-71
2022/01/14 00:20:21;;;;;;;58.35;20.90;;;;;;;0.79;88.01;103397.47;5069306;28;20095;-71
2022/01/14 00:22:49;;;;;;;67.35;21.35;;;;;;;0.76;87.38;103390.53;5067719;28;20041;-71
2022/01/14 00:33:38;;;;;;;50.08;20.13;;;;;;;0.75;86.98;103394.06;5066438;28;20532;-71
2022/01/14 00:36:05;;;;;;;84.70;20.90;;;;;;;0.77;87.71;103394.88;5068234;28;20515;-70
2022/01/14 00:38:31;;;;;;;71.68;20.05;;;;;;;0.73;87.61;103393.22;5068512;28;20045;-71
2022/01/14 00:40:58;;;;;;;94.18;21.58;;;;;;;0.65;87.11;103393.31;5068808;28;20544;-71
2022/01/14 00:43:25;;;;;;;75.22;21.00;;;;;;;0.59;87.04;103389.97;5067561;28;20067;-71
2022/01/14 00:45:53;;;;;;;47.50;20.85;;;;;;;0.59;86.85;103395.19;5067551;28;20036;-71
2022/01/14 00:48:20;;;;;;;56.85;21.70;;;;;;;0.59;87.37;103397.81;5068257;28;20045;-71
2022/01/14 00:50:47;;;;;;;66.07;21.88;;;;;;;0.56;87.33;103396.97;5084397;28;20102;-70
2022/01/14 00:53:14;;;;;;;64.68;21.42;;;;;;;0.59;86.85;103400.41;5050594;28;20051;-70
2022/01/14 00:55:50;;;;;;;50.45;21.73;;;;;;;0.61;86.60;103396.88;5067820;28;20044;-71
2022/01/14 01:01:03;;;;;;;61.13;21.70;;;;;;;0.37;87.27;103408.56;5093786;28;20052;-71
2022/01/14 01:03:32;;;;;;;46.33;21.77;;;;;;;0.48;86.94;103411.88;5066209;28;20047;-71
2022/01/14 01:05:59;;;;;;;50.60;21.85;;;;;;;0.49;87.37;103408.41;5066723;28;20135;-71
2022/01/14 01:08:28;;;;;;;47.47;21.20;;;;;;;0.47;87.00;103404.91;5063310;28;20488;-70
2022/01/14 01:10:54;;;;;;;47.90;21.10;;;;;;;0.48;86.65;103403.19;5047129;28;20041;-70
2022/01/14 01:13:26;;;;;;;47.67;20.88;;;;;;;0.48;87.04;103411.03;5053717;28;20044;-71
2022/01/14 01:15:54;;;;;;;50.17;22.50;;;;;;;0.44;87.18;103399.75;5054568;28;20513;-70
2022/01/14 01:18:21;;;;;;;42.58;21.02;;;;;;;0.52;86.93;103397.88;5087208;28;20361;-70
2022/01/14 01:20:48;;;;;;;41.85;20.98;;;;;;;0.56;86.62;103393.47;5036823;28;20045;-70
2022/01/14 01:23:15;;;;;;;43.40;20.55;;;;;;;0.58;85.90;103386.47;5054880;28;20091;-70
2022/01/14 01:26:02;;;;;;;45.03;21.38;;;;;;;0.41;86.62;103385.88;5035204;28;20036;-70
2022/01/14 01:28:29;;;;;;;45.25;20.98;;;;;;;0.48;86.43;103392.75;5054571;28;20045;-70
2022/01/14 01:31:06;;;;;;;43.53;20.65;;;;;;;0.32;86.85;103395.56;5051548;28;20497;-70
2022/01/14 01:33:33;;;;;;;39.15;20.40;;;;;;;0.30;87.12;103396.50;5038379;28;20045;-70
2022/01/14 01:36:00;;;;;;;46.03;21.15;;;;;;;0.40;86.81;103385.03;5052870;28;20041;-70
2022/01/14 01:38:27;;;;;;;43.13;21.55;;;;;;;0.50;85.90;103378.75;5081711;28;20408;-70
2022/01/14 01:40:54;;;;;;;41.63;20.63;;;;;;;0.50;85.90;103384.00;5053143;28;20103;-71
2022/01/14 01:43:24;;;;;;;44.97;21.10;;;;;;;0.55;86.03;103390.00;5052651;28;20132;-71
2022/01/14 01:45:54;;;;;;;45.27;21.17;;;;;;;0.54;85.73;103390.03;5054029;28;20135;-70
2022/01/14 01:48:21;;;;;;;38.80;20.58;;;;;;;0.47;86.07;103383.16;5054538;28;20538;-71
2022/01/14 01:50:48;;;;;;;41.92;20.48;;;;;;;0.55;86.29;103379.56;5054113;28;20056;-71
2022/01/14 01:53:15;;;;;;;44.42;20.20;;;;;;;0.59;86.34;103375.16;5020204;28;20041;-70
2022/01/14 01:55:42;;;;;;;45.90;22.10;;;;;;;0.64;86.02;103373.31;5024739;28;20053;-71
2022/01/14 01:58:09;;;;;;;42.92;20.52;;;;;;;0.64;85.30;103372.44;5034402;28;20405;-69
2022/01/14 02:00:35;;;;;;;46.85;21.52;;;;;;;0.62;86.02;103371.59;5053684;28;20051;-71
2022/01/14 02:03:03;;;;;;;40.65;20.83;;;;;;;0.54;85.81;103356.91;5053927;28;20041;-71
2022/01/14 02:05:30;;;;;;;43.22;20.73;;;;;;;0.60;85.87;103355.09;5036073;28;20056;-71
2022/01/14 02:07:56;;;;;;;40.55;20.42;;;;;;;0.57;85.98;103358.63;5048903;28;20098;-71
2022/01/14 02:10:24;;;;;;;44.08;20.27;;;;;;;0.62;85.95;103354.22;5051439;28;20424;-71
2022/01/14 02:12:53;;;;;;;37.75;20.02;;;;;;;0.65;85.55;103353.28;5053704;28;20128;-71
2022/01/14 02:15:29;;;;;;;44.80;21.63;;;;;;;0.72;85.38;103352.28;5045955;28;20485;-71
2022/01/14 02:23:17;;;;;;;40.58;20.20;;;;;;;0.71;85.47;103361.00;5046276;28;20041;-70
2022/01/14 02:25:45;;;;;;;39.75;20.52;;;;;;;0.76;86.10;103364.41;5052434;28;20040;-71
2022/01/14 02:28:15;;;;;;;41.40;20.15;;;;;;;0.75;85.62;103353.09;5035259;28;20055;-71
2022/01/14 02:30:44;;;;;;;43.97;19.63;;;;;;;0.72;85.48;103344.44;5053404;28;20045;-71
2022/01/14 02:33:14;;;;;;;42.90;21.75;;;;;;;0.79;85.58;103346.06;5053087;28;20501;-71
2022/01/14 02:35:44;;;;;;;45.13;21.35;;;;;;;0.86;85.43;103346.84;5039952;28;20436;-70
2022/01/14 02:38:13;;;;;;;46.20;21.73;;;;;;;0.81;85.04;103348.66;5035230;28;20455;-70
2022/01/14 02:40:41;;;;;;;39.30;20.52;;;;;;;0.75;84.81;103352.25;5051961;28;20049;-70
2022/01/14 02:43:13;;;;;;;44.45;22.10;;;;;;;0.54;84.66;103349.09;5052015;28;20051;-70
2022/01/14 02:45:40;;;;;;;;;;;;;;;0.23;85.41;103346.09;5053066;28;20509;-70
2022/01/14 02:48:07;;;;;;;42.42;19.70;;;;;;;0.15;85.94;103345.38;5052890;28;19955;-71
2022/01/14 02:50:42;;;;;;;41.50;19.92;;;;;;;0.26;86.20;103351.28;5053120;28;20519;-70
2022/01/14 02:53:25;;;;;;;43.03;20.40;;;;;;;0.35;85.68;103347.69;5053205;28;20047;-70
2022/01/14 02:55:55;;;;;;;42.33;20.85;;;;;;;0.42;85.23;103345.81;5043604;28;20037;-70
2022/01/14 02:58:24;;;;;;;41.00;20.52;;;;;;;0.40;85.70;103342.38;5051389;28;20041;-70
2022/01/14 03:00:52;;;;;;;38.08;20.27;;;;;;;0.41;85.40;103337.13;5051451;28;20099;-70
2022/01/14 03:03:22;;;;;;;40.35;21.48;;;;;;;0.40;85.74;103335.41;5052582;28;20554;-70
2022/01/14 03:05:51;;;;;;;43.08;22.05;;;;;;;0.35;86.03;103329.41;5044208;28;20048;-70
2022/01/14 03:08:20;;;;;;;47.70;22.17;;;;;;;0.38;86.39;103326.72;5052538;28;20098;-70
2022/01/14 03:10:53;;;;;;;46.88;23.45;;;;;;;0.50;86.28;103333.50;5051298;28;20099;-71
2022/01/14 03:13:20;;;;;;;47.92;22.88;;;;;;;0.49;85.55;103332.66;5035809;28;20037;-70
2022/01/14 03:15:47;;;;;;;48.10;23.65;;;;;;;0.51;85.49;103330.88;5052580;28;20086;-70
2022/01/14 03:18:21;;;;;;;46.75;22.70;;;;;;;0.59;85.78;103327.28;5052792;28;20049;-71
2022/01/14 03:20:50;;;;;;;42.15;21.33;;;;;;;0.53;85.77;103318.63;5053051;28;20073;-71
2022/01/14 03:23:18;;;;;;;43.20;21.05;;;;;;;0.59;85.21;103317.69;5034593;28;20040;-70
2022/01/14 03:25:49;;;;;;;48.85;21.77;;;;;;;0.67;85.29;103322.75;5052430;28;20052;-70
2022/01/14 03:28:18;;;;;;;44.80;22.20;;;;;;;0.65;85.34;103317.56;5051514;28;20049;-70
2022/01/14 03:30:45;;;;;;;46.80;22.17;;;;;;;0.66;85.57;103314.06;5051196;28;20284;-70
2022/01/14 03:33:12;;;;;;;45.33;22.50;;;;;;;0.72;85.16;103316.56;5050687;28;20041;-71
2022/01/14 03:35:40;;;;;;;50.80;23.35;;;;;;;0.74;84.67;103311.31;5045145;28;20044;-70
2022/01/14 03:38:07;;;;;;;45.33;21.58;;;;;;;0.74;84.77;103314.78;5040093;28;20420;-70
2022/01/14 03:40:33;;;;;;;45.63;22.98;;;;;;;0.73;85.05;103310.47;5050600;28;20079;-70
2022/01/14 03:43:00;;;;;;;55.90;23.95;;;;;;;0.64;85.00;103304.50;5050291;28;20120;-70
2022/01/14 03:45:27;;;;;;;47.78;23.35;;;;;;;0.63;85.65;103301.03;5051474;28;20052;-70
2022/01/14 03:47:54;;;;;;;50.53;23.15;;;;;;;0.65;85.68;103287.97;5052115;28;20041;-70
2022/01/14 03:50:20;;;;;;;48.70;23.42;;;;;;;0.68;85.41;103282.69;5052376;28;20103;-70
2022/01/14 03:52:47;;;;;;;52.55;23.52;;;;;;;0.67;85.56;103279.19;5051731;28;20039;-70
2022/01/14 03:55:14;;;;;;;50.97;23.88;;;;;;;0.62;85.06;103277.56;5049969;28;20098;-71
2022/01/14 03:57:45;;;;;;;48.25;23.52;;;;;;;0.63;86.13;103274.94;5052693;28;20494;-70
2022/01/14 04:00:12;;;;;;;47.13;22.17;;;;;;;0.67;85.28;103273.97;5051918;28;20550;-70
2022/01/14 04:02:46;;;;;;;50.92;23.15;;;;;;;0.70;85.66;103273.94;5051309;28;20034;-70
2022/01/14 04:05:13;;;;;;;43.28;22.33;;;;;;;0.68;85.41;103275.72;5051941;28;20132;-71
2022/01/14 04:07:41;;;;;;;43.30;22.05;;;;;;;0.65;85.61;103265.31;5050435;28;20040;-70
2022/01/14 04:10:11;;;;;;;48.05;22.17;;;;;;;0.69;85.04;103267.00;5050749;28;20041;-70
2022/01/14 04:12:52;;;;;;;49.33;22.80;;;;;;;0.65;85.25;103265.31;5050504;28;20493;-71
2022/01/14 04:15:50;;;;;;;47.80;22.05;;;;;;;0.69;85.64;103268.72;5051204;28;20374;-70
2022/01/14 04:18:09;;;;;;;51.40;22.52;;;;;;;0.74;85.08;103265.13;5079509;28;20033;-71
2022/01/14 04:20:37;;;;;;;49.42;22.33;;;;;;;0.76;84.92;103266.00;5051617;28;20049;-70
2022/01/14 04:23:04;;;;;;;50.67;22.90;;;;;;;0.75;84.64;103266.00;5051807;28;20044;-70
2022/01/14 04:25:33;;;;;;;51.45;22.70;;;;;;;0.64;85.18;103270.56;5042682;28;20111;-70
2022/01/14 04:28:01;;;;;;;54.17;23.00;;;;;;;0.64;85.13;103263.59;5051553;28;20111;-71
2022/01/14 04:30:28;;;;;;;58.92;23.95;;;;;;;0.65;85.54;103265.31;5051463;28;20500;-70
2022/01/14 04:32:54;;;;;;;54.45;23.50;;;;;;;0.68;86.01;103261.78;5034189;28;20037;-70
2022/01/14 04:35:21;;;;;;;53.50;24.13;;;;;;;0.74;85.82;103262.50;5049959;28;20212;-70
2022/01/14 04:37:49;;;;;;;55.00;22.90;;;;;;;0.80;85.49;103258.06;5049217;28;20037;-70
2022/01/14 04:40:16;;;;;;;54.38;22.52;;;;;;;0.64;86.03;103257.50;5050279;28;20045;-70
2022/01/14 04:42:43;;;;;;;59.55;23.73;;;;;;;0.67;85.79;103260.06;5051314;28;20048;-70
2022/01/14 04:45:25;;;;;;;50.75;23.70;;;;;;;0.69;85.66;103256.53;5083432;28;20041;-70
2022/01/14 04:47:53;;;;;;;56.72;24.42;;;;;;;0.70;86.34;103262.63;5052748;28;20086;-70
2022/01/14 04:50:23;;;;;;;58.80;21.70;;;;;;;0.69;85.68;103267.00;5054401;28;20095;-70
2022/01/14 04:52:50;;;;;;;51.35;22.20;;;;;;;0.47;85.78;103263.03;5054958;28;20040;-70
2022/01/14 04:55:20;;;;;;;55.15;22.50;;;;;;;0.52;85.65;103258.59;5054575;28;20053;-70
2022/01/14 04:57:47;;;;;;;47.03;22.63;;;;;;;0.55;85.40;103259.41;5055489;28;20041;-70
2022/01/14 05:00:18;;;;;;;50.60;21.77;;;;;;;0.60;84.95;103258.44;5054371;28;20045;-70
2022/01/14 05:02:45;;;;;;;54.08;22.35;;;;;;;0.62;84.98;103254.94;5053610;28;20041;-71
2022/01/14 05:05:12;;;;;;;56.53;22.80;;;;;;;0.53;85.42;103255.94;5054598;28;20585;-70
2022/01/14 05:07:42;;;;;;;52.53;22.58;;;;;;;0.62;85.14;103248.81;5052203;28;20388;-70
2022/01/14 05:10:20;;;;;;;56.05;23.40;;;;;;;0.62;85.24;103254.03;5055728;28;20094;-70
2022/01/14 05:12:46;;;;;;;53.20;22.20;;;;;;;0.63;84.69;103250.56;5037076;28;20098;-70
2022/01/14 05:15:15;;;;;;;47.70;20.88;;;;;;;0.60;84.73;103242.75;5054519;28;20091;-70
2022/01/14 05:17:43;;;;;;;51.00;22.02;;;;;;;0.57;85.19;103238.47;5017740;28;20057;-70
2022/01/14 05:20:11;;;;;;;54.13;23.05;;;;;;;0.61;84.64;103242.75;5047275;28;20428;-70
2022/01/14 05:22:38;;;;;;;57.13;23.50;;;;;;;0.61;84.71;103242.75;5054885;28;20033;-70
2022/01/14 05:25:07;;;;;;;51.55;22.90;;;;;;;0.63;84.62;103246.19;5046422;28;20048;-70
2022/01/14 05:27:35;;;;;;;57.65;23.58;;;;;;;0.63;85.47;103243.56;5054516;28;20053;-70
2022/01/14 05:30:04;;;;;;;54.78;21.65;;;;;;;0.72;84.83;103255.59;5054722;28;20036;-70
2022/01/14 05:32:31;;;;;;;55.88;22.25;;;;;;;0.47;85.67;103252.56;5052712;28;20055;-70
2022/01/14 05:34:58;;;;;;;49.95;22.70;;;;;;;0.55;85.56;103254.16;5045141;28;20098;-70
2022/01/14 05:37:25;;;;;;;49.28;21.63;;;;;;;0.54;85.04;103256.81;5053342;28;20044;-70
2022/01/14 05:39:52;;;;;;;47.92;20.60;;;;;;;0.63;84.95;103247.94;5030556;28;20128;-70
2022/01/14 05:42:19;;;;;;;54.78;22.20;;;;;;;0.57;85.28;103252.38;5051266;28;20037;-70
2022/01/14 05:44:46;;;;;;;53.40;21.50;;;;;;;0.60;85.87;103255.81;5052488;28;20087;-71
2022/01/14 05:47:14;;;;;;;55.60;21.67;;;;;;;0.63;85.54;103251.41;5052834;28;20111;-70
2022/01/14 05:49:41;;;;;;;51.10;22.30;;;;;;;0.73;85.60;103252.13;5053179;28;20382;-70
2022/01/14 05:52:07;;;;;;;48.42;21.05;;;;;;;0.68;85.92;103248.72;5053563;28;20049;-70
2022/01/14 05:54:35;;;;;;;57.67;21.13;;;;;;;0.73;85.60;103246.91;5052692;28;20111;-70
2022/01/14 05:57:01;;;;;;;45.88;20.67;;;;;;;0.69;85.15;103243.47;5052670;28;20497;-70
2022/01/14 05:59:28;;;;;;;52.22;21.40;;;;;;;0.73;85.24;103246.91;5052122;28;20489;-70
2022/01/14 06:01:55;;;;;;;50.05;21.67;;;;;;;0.61;85.39;103245.34;5054013;28;20056;-71
2022/01/14 06:04:21;;;;;;;54.10;21.75;;;;;;;0.63;85.11;103247.94;5028572;28;20037;-70
2022/01/14 06:06:48;;;;;;;48.10;21.73;;;;;;;0.61;85.43;103247.13;5050651;28;20041;-70
2022/01/14 06:09:15;;;;;;;50.38;22.52;;;;;;;0.60;84.73;103250.59;5053602;28;20049;-70
2022/01/14 06:11:41;;;;;;;44.17;21.90;;;;;;;0.59;85.62;103254.97;5054019;28;20040;-70
2022/01/14 06:14:08;;;;;;;51.70;21.73;;;;;;;0.63;85.28;103243.56;5052282;28;20087;-70
2022/01/14 06:16:35;;;;;;;49.78;20.98;;;;;;;0.62;84.85;103246.22;5052019;28;20045;-70
2022/01/14 06:19:02;;;;;;;45.65;20.55;;;;;;;0.69;85.40;103245.19;5052699;28;20106;-71
2022/01/14 06:21:28;;;;;;;50.50;21.50;;;;;;;0.62;85.08;103236.63;5052683;28;20378;-71
2022/01/14 06:23:55;;;;;;;52.80;21.85;;;;;;;0.66;85.11;103238.31;5053358;28;20037;-70
2022/01/14 06:26:22;;;;;;;46.65;21.58;;;;;;;0.66;85.34;103240.06;5053998;28;20049;-71
2022/01/14 06:28:49;;;;;;;48.80;21.48;;;;;;;0.68;85.32;103252.19;5051937;28;20045;-70
2022/01/14 06:31:17;;;;;;;46.22;20.42;;;;;;;0.67;85.13;103253.06;5023200;28;20052;-71
2022/01/14 06:33:43;;;;;;;51.58;21.13;;;;;;;0.65;85.51;103252.25;5051766;28;20045;-71
2022/01/14 06:36:10;;;;;;;45.95;20.85;;;;;;;0.72;85.52;103253.84;5053540;28;20044;-71
2022/01/14 06:38:37;;;;;;;49.60;20.88;;;;;;;0.66;85.04;103240.06;5053022;28;20044;-71
2022/01/14 06:41:06;;;;;;;49.90;19.90;;;;;;;0.76;85.33;103259.88;5035585;28;20053;-71
2022/01/14 06:43:33;;;;;;;47.92;21.17;;;;;;;0.81;84.95;103251.97;5053388;28;20045;-71
2022/01/14 06:46:00;;;;;;;50.75;20.45;;;;;;;0.84;84.32;103244.06;5035334;28;20063;-71
2022/01/14 06:48:26;;;;;;;47.53;20.63;;;;;;;0.85;84.92;103249.25;5053000;28;20045;-71
2022/01/14 06:50:54;;;;;;;48.17;19.45;;;;;;;0.89;85.30;103247.44;5018703;28;20052;-71
2022/01/14 06:53:21;;;;;;;50.17;21.75;;;;;;;0.87;85.58;103241.38;5052835;28;20041;-71
2022/01/14 06:55:48;;;;;;;46.10;21.00;;;;;;;0.85;85.88;103236.19;5052298;28;20163;-71
2022/01/14 06:58:15;;;;;;;42.80;19.42;;;;;;;0.90;85.88;103233.50;5052535;28;20041;-71
2022/01/14 07:00:41;;;;;;;51.00;20.60;;;;;;;1.01;85.36;103238.50;5052715;28;20045;-71
2022/01/14 07:03:08;;;;;;;46.55;20.45;;;;;;;1.07;85.82;103234.00;5051605;28;20041;-71
2022/01/14 07:05:35;;;;;;;47.28;21.17;;;;;;;1.00;86.01;103228.94;5034966;28;20049;-71
2022/01/14 07:08:01;;;;;;;51.72;21.25;;;;;;;1.05;86.07;103227.94;5047981;28;20443;-71
2022/01/14 07:10:28;;;;;;;60.38;23.73;;;;;;;1.07;87.88;103231.38;5046503;28;20048;-71
2022/01/14 07:12:55;;;;;;;53.05;22.83;;;;;;;1.11;88.16;103221.72;5051029;28;20045;-71
2022/01/14 07:15:21;;;;;;;56.95;22.70;;;;;;;1.17;87.36;103229.47;5050701;28;20048;-71
2022/01/14 07:17:48;;;;;;;62.22;23.00;;;;;;;1.13;87.79;103231.28;5052816;28;20049;-71
2022/01/14 07:20:17;;;;;;;50.60;21.35;;;;;;;1.24;87.03;103224.97;5052687;28;20052;-71
2022/01/14 07:22:47;;;;;;;50.33;22.27;;;;;;;0.99;88.29;103222.84;5050827;28;20040;-71
2022/01/14 07:25:16;;;;;;;59.50;23.08;;;;;;;0.88;89.10;103230.91;5035337;28;20508;-71
2022/01/14 07:27:43;;;;;;;60.55;23.25;;;;;;;0.86;89.17;103230.06;5051043;28;20471;-71
2022/01/14 07:30:10;;;;;;;63.42;24.45;;;;;;;0.77;89.31;103232.88;5052592;28;20051;-70
2022/01/14 07:32:37;;;;;;;57.88;22.88;;;;;;;0.88;89.03;103237.91;5050960;28;20041;-70
2022/01/14 07:35:04;;;;;;;59.08;25.10;;;;;;;1.01;89.35;103228.06;5033118;28;20049;-71
2022/01/14 07:37:31;;;;;;;66.60;23.45;;;;;;;0.97;89.26;103240.31;5053022;28;20052;-70
2022/01/14 07:39:59;;;;;;;71.53;23.70;;;;;;;0.92;89.18;103239.53;5032626;28;20075;-70
2022/01/14 07:42:26;;;;;;;65.18;25.10;;;;;;;1.05;88.78;103227.09;5033886;28;20055;-71
2022/01/14 07:44:53;;;;;;;70.97;25.88;;;;;;;0.89;88.73;103240.47;5050852;28;20055;-71
2022/01/14 07:47:19;;;;;;;65.32;23.85;;;;;;;0.87;89.33;103238.78;5050857;28;20048;-71
2022/01/14 07:49:47;;;;;;;81.38;23.40;;;;;;;0.89;89.85;103250.94;5051937;28;20045;-71
2022/01/14 07:52:13;;;;;;;80.50;26.77;;;;;;;1.13;89.15;103248.72;5052066;28;20051;-71
2022/01/14 07:54:40;;;;;;;75.63;23.67;;;;;;;0.99;89.87;103248.13;5051006;28;20033;-71
2022/01/14 07:57:08;;;;;;;90.07;24.23;;;;;;;0.82;89.91;103257.16;5050487;28;20041;-71
2022/01/14 07:59:36;;;;;;;85.38;24.05;;;;;;;0.77;90.46;103256.38;5037006;28;20048;-71
2022/01/14 08:02:05;;;;;;;95.80;23.15;;;;;;;0.74;90.88;103254.69;5050852;28;20053;-71
2022/01/14 08:04:34;;;;;;;59.25;24.70;;;;;;;0.72;90.84;103245.16;5051242;28;20128;-71
2022/01/14 08:07:09;;;;;;;95.50;24.58;;;;;;;0.54;92.09;103236.75;5048763;28;20044;-71
2022/01/14 08:09:40;;;;;;;60.60;25.08;;;;;;;0.52;91.95;103240.31;5034442;28;20068;-70
2022/01/14 08:12:08;;;;;;;66.15;25.33;;;;;;;0.72;90.90;103247.78;5048901;28;20037;-71
2022/01/14 08:14:36;;;;;;;59.08;24.52;;;;;;;0.79;91.04;103238.06;5050588;28;20037;-71
2022/01/14 08:17:04;;;;;;;59.28;24.58;;;;;;;0.76;90.66;103238.97;5050295;28;20068;-71
2022/01/14 08:19:33;;;;;;;59.10;22.95;;;;;;;0.59;91.17;103231.47;5052111;28;20501;-71
2022/01/14 08:22:03;;;;;;;59.67;25.58;;;;;;;0.81;90.20;103234.53;5043528;28;20052;-71
2022/01/14 08:24:30;;;;;;;53.13;24.42;;;;;;;0.90;90.70;103242.19;5054323;28;20037;-71
2022/01/14 08:26:57;;;;;;;52.65;22.77;;;;;;;0.74;90.87;103238.16;5053691;28;20132;-71
2022/01/14 08:29:24;;;;;;;53.03;25.60;;;;;;;0.70;90.81;103247.78;5043483;28;20052;-69
2022/01/14 08:31:50;;;;;;;58.03;23.90;;;;;;;0.70;91.17;103250.41;5054451;28;20053;-70
2022/01/14 08:34:17;;;;;;;57.15;25.70;;;;;;;0.69;90.91;103233.03;5054563;28;20037;-70
2022/01/14 08:36:44;;;;;;;56.47;26.60;;;;;;;0.54;91.82;103255.03;5042914;28;20037;-70
2022/01/14 08:39:11;;;;;;;72.25;26.60;;;;;;;0.56;91.87;103255.91;5055702;28;20045;-70
2022/01/14 08:41:38;;;;;;;56.55;26.92;;;;;;;0.66;91.74;103250.50;5043270;28;20048;-70
2022/01/14 08:44:06;;;;;;;62.55;25.58;;;;;;;0.92;91.38;103248.25;5047580;28;20041;-70
2022/01/14 08:46:47;;;;;;;;;;;;;;;0.85;91.54;103237.94;5059648;28;20580;-70
2022/01/14 08:49:13;;;;;;;51.28;23.85;;;;;;;0.87;91.17;103238.78;5055252;28;19925;-70
2022/01/14 08:51:40;;;;;;;54.60;26.67;;;;;;;0.91;91.19;103245.66;5035904;28;20041;-70
2022/01/14 08:54:08;;;;;;;63.03;25.75;;;;;;;1.02;90.56;103243.72;5084227;28;20152;-70
2022/01/14 08:56:35;;;;;;;53.88;24.77;;;;;;;1.01;90.94;103254.19;5054946;28;20041;-70
2022/01/14 08:59:02;;;;;;;54.17;26.52;;;;;;;1.05;91.40;103245.38;5053284;28;20053;-69
2022/01/14 09:01:30;;;;;;;63.83;25.88;;;;;;;1.33;90.35;103248.31;5050290;28;20048;-67
2022/01/14 09:03:57;;;;;;;65.35;25.10;;;;;;;1.38;90.27;103249.03;5051522;28;20041;-67
2022/01/14 09:06:24;;;;;;;66.93;29.00;;;;;;;1.49;89.83;103249.69;5043087;28;20484;-67
2022/01/14 09:08:50;;;;;;;61.53;27.02;;;;;;;1.45;89.58;103249.78;5049859;28;20556;-68
2022/01/14 09:11:17;;;;;;;64.60;25.73;;;;;;;1.64;88.71;103239.78;5018468;28;20045;-68
2022/01/14 09:13:44;;;;;;;60.53;26.25;;;;;;;1.84;87.54;103242.78;5034259;28;20496;-66
2022/01/14 09:16:11;;;;;;;74.50;26.30;;;;;;;1.61;87.40;103240.69;5035944;28;20041;-69
2022/01/14 09:18:38;;;;;;;55.70;25.00;;;;;;;1.26;89.58;103244.09;5054907;28;20127;-69
2022/01/14 09:21:05;;;;;;;60.83;25.52;;;;;;;1.11;90.74;103246.13;5037255;28;20048;-69
2022/01/14 09:23:33;;;;;;;61.47;26.00;;;;;;;1.09;91.59;103240.09;5053631;28;20033;-70
2022/01/14 09:26:00;;;;;;;80.00;28.42;;;;;;;1.15;92.20;103247.78;5051041;28;20032;-69
2022/01/14 09:28:28;;;;;;;56.15;27.35;;;;;;;1.07;92.04;103247.06;5053603;28;20049;-69
2022/01/14 09:30:57;;;;;;;60.08;27.25;;;;;;;1.17;92.19;103253.00;5069978;28;20037;-69
2022/01/14 09:33:24;;;;;;;72.38;28.77;;;;;;;0.98;92.94;103252.47;5034486;28;20044;-69
2022/01/14 09:35:51;;;;;;;81.57;28.42;;;;;;;0.95;93.45;103257.78;5049952;28;20451;-69
2022/01/14 09:38:18;;;;;;;73.28;30.00;;;;;;;0.98;93.19;103252.47;5047623;28;20128;-69
2022/01/14 09:40:49;;;;;;;91.50;28.88;;;;;;;1.13;93.21;103251.34;5081083;28;20045;-68
2022/01/14 09:43:16;;;;;;;72.28;30.10;;;;;;;1.26;92.59;103265.88;5051797;28;20032;-70
2022/01/14 09:46:00;;;;;;;70.03;28.25;;;;;;;1.32;92.52;103262.25;5031810;28;20037;-69
2022/01/14 09:48:27;;;;;;;67.32;29.17;;;;;;;1.22;92.67;103279.03;5052631;28;20052;-70
2022/01/14 09:50:54;;;;;;;73.68;28.13;;;;;;;1.39;91.54;103263.84;5052761;28;20052;-69
2022/01/14 09:53:20;;;;;;;74.38;31.13;;;;;;;1.38;91.85;103277.81;5059937;28;20038;-70
2022/01/14 09:55:47;;;;;;;84.13;33.65;;;;;;;1.29;91.85;103288.47;5054229;28;20068;-66
2022/01/14 09:58:15;;;;;;;86.38;33.83;;;;;;;1.45;92.29;103294.25;5053714;28;20083;-70
2022/01/14 10:00:42;;;;;;;85.50;31.92;;;;;;;1.46;92.00;103299.47;5051833;28;20052;-70
2022/01/14 10:03:25;;;;;;;90.68;32.25;;;;;;;1.44;91.97;103303.00;5052248;28;20516;-68
2022/01/14 10:05:57;;;;;;;72.43;29.83;;;;;;;1.58;92.71;103307.94;5052204;28;20036;-70
2022/01/14 10:08:26;;;;;;;75.75;29.80;;;;;;;1.56;91.95;103302.72;5051133;28;20490;-70
2022/01/14 10:10:59;;;;;;;78.90;28.95;;;;;;;1.61;91.05;103306.13;5050141;28;20048;-70
2022/01/14 10:13:30;;;;;;;84.53;29.23;;;;;;;1.59;91.03;103301.81;5079202;28;20047;-68
2022/01/14 10:16:03;;;;;;;89.57;31.27;;;;;;;1.64;91.62;103307.81;5050060;28;20149;-68
2022/01/14 10:18:32;;;;;;;80.22;30.20;;;;;;;1.68;91.33;103306.84;5053272;28;20049;-69
2022/01/14 10:21:02;;;;;;;70.70;29.23;;;;;;;1.81;91.41;103299.59;5051511;28;20124;-68
2022/01/14 10:23:48;;;;;;;73.88;29.65;;;;;;;1.85;91.69;103289.00;5053218;28;20045;-69
2022/01/14 10:26:16;;;;;;;69.25;27.70;;;;;;;1.91;90.80;103294.09;5023281;28;20077;-69
2022/01/14 10:28:45;;;;;;;71.47;28.25;;;;;;;1.99;91.49;103293.06;5051876;28;20044;-69
2022/01/14 10:31:12;;;;;;;73.55;29.67;;;;;;;1.89;91.39;103289.78;5042799;28;20036;-68
2022/01/14 10:33:40;;;;;;;67.65;27.48;;;;;;;2.07;91.17;103283.25;5046918;28;20068;-68
2022/01/14 10:36:18;;;;;;;79.35;30.45;;;;;;;2.17;90.94;103273.44;5051752;28;20033;-69
2022/01/14 10:38:46;;;;;;;72.85;29.02;;;;;;;2.23;90.12;103261.03;5046135;28;20536;-68
2022/01/14 10:41:13;;;;;;;81.82;28.40;;;;;;;2.32;90.73;103264.34;5052028;28;20052;-68
2022/01/14 10:43:43;;;;;;;72.15;28.45;;;;;;;2.33;90.04;103252.94;5081884;28;20049;-69
2022/01/14 10:46:10;;;;;;;92.80;29.63;;;;;;;2.43;90.04;103255.28;5033520;28;20393;-68
2022/01/14 10:48:41;;;;;;;94.90;28.65;;;;;;;2.47;90.24;103251.72;5049265;28;20433;-68
2022/01/14 10:51:10;;;;;;;115.50;27.15;;;;;;;2.37;90.31;103255.47;5052423;28;20041;-69
2022/01/14 10:53:41;;;;;;;123.97;27.98;;;;;;;2.17;91.25;103248.09;5049240;28;20127;-68
2022/01/14 10:56:11;;;;;;;118.10;27.73;;;;;;;2.13;92.26;103253.44;5051366;28;20055;-69
2022/01/14 10:58:42;;;;;;;80.32;27.10;;;;;;;2.21;92.12;103248.91;5050183;28;20046;-69
2022/01/14 11:01:15;;;;;;;83.32;27.70;;;;;;;2.30;91.97;103244.28;5030910;28;20087;-69
2022/01/14 11:03:46;;;;;;;91.18;26.67;;;;;;;2.39;92.09;103235.31;5058806;28;20067;-69
2022/01/14 11:06:35;;;;;;;94.70;27.13;;;;;;;2.50;91.51;103237.66;5053024;28;20049;-69
2022/01/14 11:09:05;;;;;;;89.43;26.85;;;;;;;2.58;91.85;103242.69;5047942;28;20041;-69
2022/01/14 11:11:34;;;;;;;132.05;27.33;;;;;;;2.47;91.51;103240.34;5053479;28;20044;-70
2022/01/14 11:14:02;;;;;;;114.00;26.85;;;;;;;2.46;92.23;103239.50;5041048;28;20049;-68
2022/01/14 11:16:30;;;;;;;73.63;27.33;;;;;;;2.54;91.97;103234.06;5051020;28;20055;-69
2022/01/14 11:19:00;;;;;;;80.50;28.67;;;;;;;2.54;91.86;103235.81;5047144;28;20045;-68
2022/01/14 11:24:19;;;;;;;82.35;26.75;;;;;;;2.68;92.23;103225.81;5071384;28;20032;-69
2022/01/14 11:26:48;;;;;;;84.32;27.80;;;;;;;2.73;91.63;103230.94;5050227;28;20770;-68
2022/01/14 11:29:17;;;;;;;88.95;27.95;;;;;;;2.85;91.86;103230.59;5046536;28;20049;-68
2022/01/14 11:31:44;;;;;;;83.50;28.33;;;;;;;2.87;91.53;103234.91;5044168;28;20060;-68
2022/01/14 11:34:42;;;;;;;79.22;30.08;;;;;;;2.97;91.42;103234.66;5048478;28;20037;-68
2022/01/14 11:37:14;;;;;;;83.97;29.35;;;;;;;2.99;91.08;103231.06;5042362;28;20500;-68
2022/01/14 11:39:55;;;;;;;88.22;28.52;;;;;;;3.02;90.32;103230.09;5050165;28;20045;-69
2022/01/14 11:42:40;;;;;;;92.47;31.03;;;;;;;2.94;89.79;103227.72;5046311;28;20047;-68